sensor_id;sensor_type;location;lat;lon;timestamp;pressure;altitude;pressure_sealevel;temperature;humidity
34374;BME280;20637;55.770;37.592;2022-09-09T00:01:08;100435.06;;;8.39;66.40
34374;BME280;20637;55.770;37.592;2022-09-09T00:03:48;100435.53;;;8.44;66.25
34374;BME280;20637;55.770;37.592;2022-09-09T00:06:28;100437.22;;;8.45;66.96
34374;BME280;20637;55.770;37.592;2022-09-09T00:09:02;100446.41;;;8.43;66.33
34374;BME280;20637;55.770;37.592;2022-09-09T00:11:52;100447.38;;;8.42;66.97
34374;BME280;20637;55.770;37.592;2022-09-09T00:14:37;100442.16;;;8.40;66.89
34374;BME280;20637;55.770;37.592;2022-09-09T00:17:12;100443.00;;;8.41;66.29
34374;BME280;20637;55.770;37.592;2022-09-09T00:19:46;100435.91;;;8.40;67.00
34374;BME280;20637;55.770;37.592;2022-09-09T00:24:54;100439.66;;;8.48;66.51
34374;BME280;20637;55.770;37.592;2022-09-09T00:27:37;100444.63;;;8.53;67.05
34374;BME280;20637;55.770;37.592;2022-09-09T00:30:24;100439.81;;;8.56;66.97
34374;BME280;20637;55.770;37.592;2022-09-09T00:32:55;100441.38;;;8.59;66.82
34374;BME280;20637;55.770;37.592;2022-09-09T00:35:30;100442.34;;;8.58;66.37
34374;BME280;20637;55.770;37.592;2022-09-09T00:38:01;100458.25;;;8.61;67.19
34374;BME280;20637;55.770;37.592;2022-09-09T00:40:34;100452.59;;;8.64;66.92
34374;BME280;20637;55.770;37.592;2022-09-09T00:45:52;100449.03;;;8.64;66.67
34374;BME280;20637;55.770;37.592;2022-09-09T00:49:31;100468.56;;;8.56;67.25
34374;BME280;20637;55.770;37.592;2022-09-09T00:57:02;100463.69;;;8.50;66.46
34374;BME280;20637;55.770;37.592;2022-09-09T00:59:52;100466.53;;;8.48;66.61
34374;BME280;20637;55.770;37.592;2022-09-09T01:04:53;100475.13;;;8.42;66.69
34374;BME280;20637;55.770;37.592;2022-09-09T01:07:20;100477.13;;;8.40;66.84
34374;BME280;20637;55.770;37.592;2022-09-09T01:09:57;100477.81;;;8.42;66.82
34374;BME280;20637;55.770;37.592;2022-09-09T01:12:53;100476.28;;;8.40;66.68
34374;BME280;20637;55.770;37.592;2022-09-09T01:15:26;100482.22;;;8.43;67.44
34374;BME280;20637;55.770;37.592;2022-09-09T01:18:04;100477.59;;;8.45;66.88
34374;BME280;20637;55.770;37.592;2022-09-09T01:28:53;100491.72;;;8.27;66.79
34374;BME280;20637;55.770;37.592;2022-09-09T01:31:36;100487.34;;;8.26;66.74
34374;BME280;20637;55.770;37.592;2022-09-09T01:34:10;100487.75;;;8.21;67.00
34374;BME280;20637;55.770;37.592;2022-09-09T01:39:23;100487.16;;;8.18;67.49
34374;BME280;20637;55.770;37.592;2022-09-09T01:41:57;100499.47;;;8.20;67.70
34374;BME280;20637;55.770;37.592;2022-09-09T01:44:24;100502.75;;;8.24;67.45
34374;BME280;20637;55.770;37.592;2022-09-09T01:46:50;100503.25;;;8.29;67.79
34374;BME280;20637;55.770;37.592;2022-09-09T01:49:19;100499.69;;;8.28;67.65
34374;BME280;20637;55.770;37.592;2022-09-09T01:51:50;100502.06;;;8.22;67.41
34374;BME280;20637;55.770;37.592;2022-09-09T01:54:20;100506.41;;;8.23;67.67
34374;BME280;20637;55.770;37.592;2022-09-09T01:57:06;100502.16;;;8.20;67.84
34374;BME280;20637;55.770;37.592;2022-09-09T02:02:27;100513.78;;;8.21;67.96
34374;BME280;20637;55.770;37.592;2022-09-09T02:08:09;100517.03;;;8.14;67.33
34374;BME280;20637;55.770;37.592;2022-09-09T02:11:06;100513.31;;;8.15;67.66
34374;BME280;20637;55.770;37.592;2022-09-09T02:13:43;100512.47;;;8.15;67.26
34374;BME280;20637;55.770;37.592;2022-09-09T02:21:51;100511.50;;;8.16;67.82
34374;BME280;20637;55.770;37.592;2022-09-09T02:24:19;100521.16;;;8.19;68.08
34374;BME280;20637;55.770;37.592;2022-09-09T02:26:54;100515.63;;;8.20;67.54
34374;BME280;20637;55.770;37.592;2022-09-09T02:29:25;100524.53;;;8.21;67.96
34374;BME280;20637;55.770;37.592;2022-09-09T02:31:52;100525.41;;;8.21;67.60
34374;BME280;20637;55.770;37.592;2022-09-09T02:34:27;100538.00;;;8.21;67.89
34374;BME280;20637;55.770;37.592;2022-09-09T02:36:54;100523.56;;;8.22;67.69
34374;BME280;20637;55.770;37.592;2022-09-09T02:39:22;100535.31;;;8.21;67.95
34374;BME280;20637;55.770;37.592;2022-09-09T02:41:50;100540.09;;;8.17;68.10
34374;BME280;20637;55.770;37.592;2022-09-09T02:44:18;100545.00;;;8.12;68.37
34374;BME280;20637;55.770;37.592;2022-09-09T02:49:43;100543.28;;;8.11;68.75
34374;BME280;20637;55.770;37.592;2022-09-09T02:55:20;100551.78;;;8.06;68.62
34374;BME280;20637;55.770;37.592;2022-09-09T02:57:52;100547.63;;;8.02;68.39
34374;BME280;20637;55.770;37.592;2022-09-09T03:00:26;100560.59;;;7.97;68.60
34374;BME280;20637;55.770;37.592;2022-09-09T03:02:56;100556.34;;;7.95;68.64
34374;BME280;20637;55.770;37.592;2022-09-09T03:05:22;100565.50;;;7.92;68.67
34374;BME280;20637;55.770;37.592;2022-09-09T03:07:48;100562.97;;;7.91;69.13
34374;BME280;20637;55.770;37.592;2022-09-09T03:10:17;100557.81;;;7.88;69.21
34374;BME280;20637;55.770;37.592;2022-09-09T03:12:43;100572.13;;;7.88;69.37
34374;BME280;20637;55.770;37.592;2022-09-09T03:15:09;100567.00;;;7.85;69.38
34374;BME280;20637;55.770;37.592;2022-09-09T03:17:36;100568.13;;;7.83;69.49
34374;BME280;20637;55.770;37.592;2022-09-09T03:20:06;100563.59;;;7.83;69.76
34374;BME280;20637;55.770;37.592;2022-09-09T03:22:32;100577.03;;;7.83;69.39
34374;BME280;20637;55.770;37.592;2022-09-09T03:24:59;100567.88;;;7.86;69.80
34374;BME280;20637;55.770;37.592;2022-09-09T03:27:28;100565.06;;;7.87;69.83
34374;BME280;20637;55.770;37.592;2022-09-09T03:29:54;100572.72;;;7.92;69.89
34374;BME280;20637;55.770;37.592;2022-09-09T03:32:23;100571.88;;;7.91;69.49
34374;BME280;20637;55.770;37.592;2022-09-09T03:34:52;100580.94;;;7.90;69.50
34374;BME280;20637;55.770;37.592;2022-09-09T03:37:19;100585.31;;;7.91;69.99
34374;BME280;20637;55.770;37.592;2022-09-09T03:39:46;100586.91;;;7.94;69.92
34374;BME280;20637;55.770;37.592;2022-09-09T03:42:14;100590.44;;;7.94;69.39
34374;BME280;20637;55.770;37.592;2022-09-09T03:44:45;100595.22;;;7.91;69.75
34374;BME280;20637;55.770;37.592;2022-09-09T03:47:20;100599.00;;;7.88;69.52
34374;BME280;20637;55.770;37.592;2022-09-09T03:49:48;100591.09;;;7.87;69.72
34374;BME280;20637;55.770;37.592;2022-09-09T03:52:15;100594.47;;;7.89;70.00
34374;BME280;20637;55.770;37.592;2022-09-09T03:54:41;100596.91;;;7.92;69.66
34374;BME280;20637;55.770;37.592;2022-09-09T03:57:11;100600.81;;;7.99;69.61
34374;BME280;20637;55.770;37.592;2022-09-09T03:59:37;100589.91;;;8.00;69.87
34374;BME280;20637;55.770;37.592;2022-09-09T04:02:03;100601.16;;;8.05;69.93
34374;BME280;20637;55.770;37.592;2022-09-09T04:04:29;100601.16;;;8.05;69.19
34374;BME280;20637;55.770;37.592;2022-09-09T04:06:55;100599.44;;;8.04;69.25
34374;BME280;20637;55.770;37.592;2022-09-09T04:09:22;100603.09;;;8.03;69.64
34374;BME280;20637;55.770;37.592;2022-09-09T04:11:49;100605.66;;;8.05;69.16
34374;BME280;20637;55.770;37.592;2022-09-09T04:14:15;100607.00;;;8.10;69.74
34374;BME280;20637;55.770;37.592;2022-09-09T04:16:41;100600.13;;;8.18;69.65
34374;BME280;20637;55.770;37.592;2022-09-09T04:19:13;100599.59;;;8.24;69.05
34374;BME280;20637;55.770;37.592;2022-09-09T04:21:41;100610.69;;;8.30;69.32
34374;BME280;20637;55.770;37.592;2022-09-09T04:24:07;100606.91;;;8.33;69.14
34374;BME280;20637;55.770;37.592;2022-09-09T04:26:34;100612.41;;;8.31;68.56
34374;BME280;20637;55.770;37.592;2022-09-09T04:29:00;100612.16;;;8.34;69.11
34374;BME280;20637;55.770;37.592;2022-09-09T04:31:27;100613.75;;;8.37;69.00
34374;BME280;20637;55.770;37.592;2022-09-09T04:33:55;100607.63;;;8.35;68.75
34374;BME280;20637;55.770;37.592;2022-09-09T04:36:21;100605.41;;;8.40;68.48
34374;BME280;20637;55.770;37.592;2022-09-09T04:38:48;100609.53;;;8.44;68.14
34374;BME280;20637;55.770;37.592;2022-09-09T04:41:15;100610.00;;;8.49;68.15
34374;BME280;20637;55.770;37.592;2022-09-09T04:43:43;100608.50;;;8.56;67.73
34374;BME280;20637;55.770;37.592;2022-09-09T04:46:09;100619.84;;;8.59;67.96
34374;BME280;20637;55.770;37.592;2022-09-09T04:48:35;100619.00;;;8.59;67.34
34374;BME280;20637;55.770;37.592;2022-09-09T04:51:07;100617.75;;;8.63;67.56
34374;BME280;20637;55.770;37.592;2022-09-09T04:53:35;100622.28;;;8.63;67.72
34374;BME280;20637;55.770;37.592;2022-09-09T04:56:07;100615.44;;;8.58;66.95
34374;BME280;20637;55.770;37.592;2022-09-09T04:58:40;100622.28;;;8.63;67.43
34374;BME280;20637;55.770;37.592;2022-09-09T05:01:17;100619.06;;;8.69;67.02
34374;BME280;20637;55.770;37.592;2022-09-09T05:03:44;100621.09;;;8.76;67.04
34374;BME280;20637;55.770;37.592;2022-09-09T05:06:14;100621.53;;;8.81;67.22
34374;BME280;20637;55.770;37.592;2022-09-09T05:08:41;100618.72;;;8.83;66.57
34374;BME280;20637;55.770;37.592;2022-09-09T05:13:46;100631.25;;;8.93;66.17
34374;BME280;20637;55.770;37.592;2022-09-09T05:16:12;100649.31;;;9.02;65.80
34374;BME280;20637;55.770;37.592;2022-09-09T05:18:39;100640.09;;;9.05;65.91
34374;BME280;20637;55.770;37.592;2022-09-09T05:21:07;100639.81;;;9.08;66.07
34374;BME280;20637;55.770;37.592;2022-09-09T05:23:33;100644.69;;;9.14;65.21
34374;BME280;20637;55.770;37.592;2022-09-09T05:26:00;100645.66;;;9.13;65.01
34374;BME280;20637;55.770;37.592;2022-09-09T05:28:27;100638.56;;;9.12;65.13
34374;BME280;20637;55.770;37.592;2022-09-09T05:31:07;100654.31;;;9.17;64.93
34374;BME280;20637;55.770;37.592;2022-09-09T05:33:35;100649.41;;;9.22;64.68
34374;BME280;20637;55.770;37.592;2022-09-09T05:36:04;100648.25;;;9.24;65.04
34374;BME280;20637;55.770;37.592;2022-09-09T05:38:32;100642.75;;;9.26;64.44
34374;BME280;20637;55.770;37.592;2022-09-09T05:40:59;100642.19;;;9.32;64.36
34374;BME280;20637;55.770;37.592;2022-09-09T05:43:26;100650.72;;;9.37;64.01
34374;BME280;20637;55.770;37.592;2022-09-09T05:46:04;100654.41;;;9.36;63.90
34374;BME280;20637;55.770;37.592;2022-09-09T05:48:31;100643.06;;;9.32;64.25
34374;BME280;20637;55.770;37.592;2022-09-09T05:50:58;100642.50;;;9.38;63.94
34374;BME280;20637;55.770;37.592;2022-09-09T05:53:28;100653.19;;;9.49;63.92
34374;BME280;20637;55.770;37.592;2022-09-09T05:56:06;100636.75;;;9.62;63.69
34374;BME280;20637;55.770;37.592;2022-09-09T05:58:34;100660.63;;;9.67;63.02
34374;BME280;20637;55.770;37.592;2022-09-09T06:03:28;100660.50;;;9.78;62.34
34374;BME280;20637;55.770;37.592;2022-09-09T06:05:58;100657.56;;;9.81;62.73
34374;BME280;20637;55.770;37.592;2022-09-09T06:08:24;100654.28;;;9.87;62.36
34374;BME280;20637;55.770;37.592;2022-09-09T06:10:50;100663.94;;;9.80;62.09
34374;BME280;20637;55.770;37.592;2022-09-09T06:13:17;100667.88;;;9.76;61.60
34374;BME280;20637;55.770;37.592;2022-09-09T06:15:52;100672.84;;;9.71;61.68
34374;BME280;20637;55.770;37.592;2022-09-09T06:18:19;100671.84;;;9.72;61.22
34374;BME280;20637;55.770;37.592;2022-09-09T06:21:01;100673.84;;;9.79;61.01
34374;BME280;20637;55.770;37.592;2022-09-09T06:23:31;100668.63;;;9.87;61.17
34374;BME280;20637;55.770;37.592;2022-09-09T06:26:24;100670.06;;;10.01;61.13
34374;BME280;20637;55.770;37.592;2022-09-09T06:28:51;100676.47;;;10.10;60.90
34374;BME280;20637;55.770;37.592;2022-09-09T06:31:21;100680.72;;;10.12;60.37
34374;BME280;20637;55.770;37.592;2022-09-09T06:33:49;100673.22;;;10.16;60.14
34374;BME280;20637;55.770;37.592;2022-09-09T06:36:21;100686.19;;;10.22;59.78
34374;BME280;20637;55.770;37.592;2022-09-09T06:38:48;100689.44;;;10.25;59.67
34374;BME280;20637;55.770;37.592;2022-09-09T06:41:16;100676.53;;;10.19;58.81
34374;BME280;20637;55.770;37.592;2022-09-09T06:43:45;100688.75;;;10.23;59.02
34374;BME280;20637;55.770;37.592;2022-09-09T06:46:12;100675.09;;;10.25;58.71
34374;BME280;20637;55.770;37.592;2022-09-09T06:48:39;100676.53;;;10.29;58.77
34374;BME280;20637;55.770;37.592;2022-09-09T06:53:42;100681.06;;;10.47;57.88
34374;BME280;20637;55.770;37.592;2022-09-09T06:56:31;100680.78;;;10.50;57.93
34374;BME280;20637;55.770;37.592;2022-09-09T06:58:59;100700.84;;;10.58;57.84
34374;BME280;20637;55.770;37.592;2022-09-09T07:01:31;100685.47;;;10.68;57.12
34374;BME280;20637;55.770;37.592;2022-09-09T07:04:00;100687.59;;;10.83;56.98
34374;BME280;20637;55.770;37.592;2022-09-09T07:06:29;100696.09;;;10.98;56.75
34374;BME280;20637;55.770;37.592;2022-09-09T07:09:06;100684.25;;;11.09;56.19
34374;BME280;20637;55.770;37.592;2022-09-09T07:11:38;100686.06;;;11.27;55.79
34374;BME280;20637;55.770;37.592;2022-09-09T07:14:04;100701.38;;;11.36;55.18
34374;BME280;20637;55.770;37.592;2022-09-09T07:16:30;100695.13;;;11.36;55.01
34374;BME280;20637;55.770;37.592;2022-09-09T07:18:58;100696.66;;;11.48;54.61
34374;BME280;20637;55.770;37.592;2022-09-09T07:21:28;100709.28;;;11.57;53.90
34374;BME280;20637;55.770;37.592;2022-09-09T07:23:54;100698.78;;;11.54;53.21
34374;BME280;20637;55.770;37.592;2022-09-09T07:26:26;100710.16;;;11.58;52.83
34374;BME280;20637;55.770;37.592;2022-09-09T07:28:54;100707.00;;;11.62;52.92
34374;BME280;20637;55.770;37.592;2022-09-09T07:31:30;100714.50;;;11.68;52.91
34374;BME280;20637;55.770;37.592;2022-09-09T07:33:57;100720.66;;;11.61;53.04
34374;BME280;20637;55.770;37.592;2022-09-09T07:36:28;100708.38;;;11.66;53.21
34374;BME280;20637;55.770;37.592;2022-09-09T07:38:58;100710.09;;;11.77;52.24
34374;BME280;20637;55.770;37.592;2022-09-09T07:41:35;100713.84;;;11.93;52.36
34374;BME280;20637;55.770;37.592;2022-09-09T07:44:12;100720.63;;;12.25;52.05
34374;BME280;20637;55.770;37.592;2022-09-09T07:46:40;100723.19;;;12.44;50.86
34374;BME280;20637;55.770;37.592;2022-09-09T07:49:09;100727.69;;;12.35;51.23
34374;BME280;20637;55.770;37.592;2022-09-09T07:51:42;100725.44;;;12.31;51.16
34374;BME280;20637;55.770;37.592;2022-09-09T07:54:10;100729.69;;;12.33;51.00
34374;BME280;20637;55.770;37.592;2022-09-09T07:56:39;100736.72;;;12.44;50.73
34374;BME280;20637;55.770;37.592;2022-09-09T07:59:06;100741.06;;;12.37;50.39
34374;BME280;20637;55.770;37.592;2022-09-09T08:01:34;100728.84;;;12.33;50.26
34374;BME280;20637;55.770;37.592;2022-09-09T08:04:08;100733.31;;;12.24;49.73
34374;BME280;20637;55.770;37.592;2022-09-09T08:06:37;100732.72;;;12.03;49.17
34374;BME280;20637;55.770;37.592;2022-09-09T08:09:04;100735.00;;;11.80;49.68
34374;BME280;20637;55.770;37.592;2022-09-09T08:11:32;100736.72;;;11.72;50.10
34374;BME280;20637;55.770;37.592;2022-09-09T08:13:59;100729.38;;;11.91;50.12
34374;BME280;20637;55.770;37.592;2022-09-09T08:16:29;100729.03;;;12.04;49.58
34374;BME280;20637;55.770;37.592;2022-09-09T08:18:56;100725.63;;;12.02;49.69
34374;BME280;20637;55.770;37.592;2022-09-09T08:21:25;100728.59;;;12.26;50.00
34374;BME280;20637;55.770;37.592;2022-09-09T08:23:57;100728.38;;;12.55;49.13
34374;BME280;20637;55.770;37.592;2022-09-09T08:28:53;100737.59;;;12.80;47.98
34374;BME280;20637;55.770;37.592;2022-09-09T08:31:26;100736.81;;;12.87;47.64
34374;BME280;20637;55.770;37.592;2022-09-09T08:33:55;100737.28;;;13.01;46.91
34374;BME280;20637;55.770;37.592;2022-09-09T08:36:23;100739.66;;;13.21;46.97
34374;BME280;20637;55.770;37.592;2022-09-09T08:38:51;100737.97;;;13.46;46.87
34374;BME280;20637;55.770;37.592;2022-09-09T08:47:44;100741.31;;;13.40;47.06
34374;BME280;20637;55.770;37.592;2022-09-09T08:50:22;100745.63;;;13.07;47.46
34374;BME280;20637;55.770;37.592;2022-09-09T08:53:18;100749.84;;;12.66;48.41
34374;BME280;20637;55.770;37.592;2022-09-09T08:55:58;100752.31;;;12.42;48.68
34374;BME280;20637;55.770;37.592;2022-09-09T08:58:43;100750.81;;;12.30;49.05
34374;BME280;20637;55.770;37.592;2022-09-09T09:06:47;100750.84;;;12.65;48.18
34374;BME280;20637;55.770;37.592;2022-09-09T09:09:41;100756.06;;;13.02;47.61
34374;BME280;20637;55.770;37.592;2022-09-09T09:12:19;100757.16;;;13.27;47.41
34374;BME280;20637;55.770;37.592;2022-09-09T09:14:47;100752.13;;;13.32;46.67
34374;BME280;20637;55.770;37.592;2022-09-09T09:17:16;100748.56;;;13.31;47.23
34374;BME280;20637;55.770;37.592;2022-09-09T09:19:43;100757.50;;;13.24;47.64
34374;BME280;20637;55.770;37.592;2022-09-09T09:27:58;100758.97;;;12.65;48.46
34374;BME280;20637;55.770;37.592;2022-09-09T09:33:38;100761.91;;;12.54;48.65
34374;BME280;20637;55.770;37.592;2022-09-09T09:36:10;100752.69;;;12.47;48.93
34374;BME280;20637;55.770;37.592;2022-09-09T09:38:39;100755.22;;;12.49;49.03
34374;BME280;20637;55.770;37.592;2022-09-09T09:41:05;100750.91;;;12.56;48.74
34374;BME280;20637;55.770;37.592;2022-09-09T09:43:36;100742.09;;;12.54;49.09
34374;BME280;20637;55.770;37.592;2022-09-09T09:46:19;100750.94;;;12.73;48.97
34374;BME280;20637;55.770;37.592;2022-09-09T09:49:02;100735.72;;;13.16;48.24
34374;BME280;20637;55.770;37.592;2022-09-09T09:51:30;100745.72;;;13.41;47.31
34374;BME280;20637;55.770;37.592;2022-09-09T09:54:22;100751.41;;;13.56;46.39
34374;BME280;20637;55.770;37.592;2022-09-09T09:56:55;100742.44;;;13.29;46.59
34374;BME280;20637;55.770;37.592;2022-09-09T09:59:34;100740.13;;;13.17;47.34
34374;BME280;20637;55.770;37.592;2022-09-09T10:04:39;100743.16;;;13.14;47.57
34374;BME280;20637;55.770;37.592;2022-09-09T10:07:31;100742.69;;;13.18;47.33
34374;BME280;20637;55.770;37.592;2022-09-09T10:09:58;100747.03;;;13.11;47.59
34374;BME280;20637;55.770;37.592;2022-09-09T10:13:05;100751.91;;;13.08;47.90
34374;BME280;20637;55.770;37.592;2022-09-09T10:18:52;100753.41;;;12.84;47.44
34374;BME280;20637;55.770;37.592;2022-09-09T10:26:55;100749.69;;;12.68;48.41
34374;BME280;20637;55.770;37.592;2022-09-09T10:29:53;100745.47;;;13.09;47.83
34374;BME280;20637;55.770;37.592;2022-09-09T10:35:02;100747.66;;;13.82;46.68
34374;BME280;20637;55.770;37.592;2022-09-09T10:42:51;100750.34;;;13.49;46.34
34374;BME280;20637;55.770;37.592;2022-09-09T10:45:29;100762.06;;;13.23;46.28
34374;BME280;20637;55.770;37.592;2022-09-09T10:50:56;100765.94;;;12.85;47.05
34374;BME280;20637;55.770;37.592;2022-09-09T10:56:16;100756.25;;;12.65;47.37
34374;BME280;20637;55.770;37.592;2022-09-09T10:58:49;100757.88;;;12.58;46.97
34374;BME280;20637;55.770;37.592;2022-09-09T11:01:30;100759.56;;;12.59;46.91
34374;BME280;20637;55.770;37.592;2022-09-09T11:04:03;100765.69;;;12.61;47.18
34374;BME280;20637;55.770;37.592;2022-09-09T11:06:39;100754.22;;;12.67;46.47
34374;BME280;20637;55.770;37.592;2022-09-09T11:09:15;100753.47;;;12.93;46.31
34374;BME280;20637;55.770;37.592;2022-09-09T11:11:53;100748.31;;;13.25;46.03
34374;BME280;20637;55.770;37.592;2022-09-09T11:14:31;100749.69;;;13.47;45.43
34374;BME280;20637;55.770;37.592;2022-09-09T11:17:02;100748.13;;;13.44;45.59
34374;BME280;20637;55.770;37.592;2022-09-09T11:22:05;100750.75;;;13.28;45.80
34374;BME280;20637;55.770;37.592;2022-09-09T11:24:36;100750.69;;;13.20;45.99
34374;BME280;20637;55.770;37.592;2022-09-09T11:40:38;100763.66;;;12.99;45.74
34374;BME280;20637;55.770;37.592;2022-09-09T11:43:24;100759.81;;;13.19;45.46
34374;BME280;20637;55.770;37.592;2022-09-09T11:45:53;100752.41;;;13.29;45.18
34374;BME280;20637;55.770;37.592;2022-09-09T11:48:33;100760.72;;;13.53;44.95
34374;BME280;20637;55.770;37.592;2022-09-09T11:51:08;100752.56;;;13.79;44.24
34374;BME280;20637;55.770;37.592;2022-09-09T11:53:52;100751.50;;;13.98;44.49
34374;BME280;20637;55.770;37.592;2022-09-09T11:56:32;100760.50;;;14.06;44.24
34374;BME280;20637;55.770;37.592;2022-09-09T11:59:19;100753.88;;;14.01;44.25
34374;BME280;20637;55.770;37.592;2022-09-09T12:01:48;100745.34;;;13.96;44.12
34374;BME280;20637;55.770;37.592;2022-09-09T12:06:59;100751.22;;;13.83;44.71
34374;BME280;20637;55.770;37.592;2022-09-09T12:09:51;100743.59;;;13.78;44.14
34374;BME280;20637;55.770;37.592;2022-09-09T12:12:32;100744.28;;;13.80;44.33
34374;BME280;20637;55.770;37.592;2022-09-09T12:17:30;100738.25;;;14.03;44.18
34374;BME280;20637;55.770;37.592;2022-09-09T12:20:02;100739.63;;;14.07;43.38
34374;BME280;20637;55.770;37.592;2022-09-09T12:22:40;100736.31;;;14.21;43.16
34374;BME280;20637;55.770;37.592;2022-09-09T12:27:47;100730.78;;;14.47;42.50
34374;BME280;20637;55.770;37.592;2022-09-09T12:30:18;100735.50;;;14.37;42.82
34374;BME280;20637;55.770;37.592;2022-09-09T12:32:46;100748.19;;;14.20;43.30
34374;BME280;20637;55.770;37.592;2022-09-09T12:35:20;100742.00;;;14.10;43.30
34374;BME280;20637;55.770;37.592;2022-09-09T12:37:58;100746.41;;;14.03;43.70
34374;BME280;20637;55.770;37.592;2022-09-09T12:40:35;100747.44;;;14.10;44.07
34374;BME280;20637;55.770;37.592;2022-09-09T12:43:01;100744.09;;;14.16;44.20
34374;BME280;20637;55.770;37.592;2022-09-09T12:45:41;100743.75;;;14.19;43.89
34374;BME280;20637;55.770;37.592;2022-09-09T12:48:08;100735.59;;;14.19;44.50
34374;BME280;20637;55.770;37.592;2022-09-09T12:50:45;100741.75;;;14.21;43.66
34374;BME280;20637;55.770;37.592;2022-09-09T12:53:29;100731.50;;;14.15;44.01
34374;BME280;20637;55.770;37.592;2022-09-09T12:56:06;100735.22;;;14.14;44.28
34374;BME280;20637;55.770;37.592;2022-09-09T12:58:33;100746.63;;;14.17;43.55
34374;BME280;20637;55.770;37.592;2022-09-09T13:01:03;100741.88;;;14.19;43.63
34374;BME280;20637;55.770;37.592;2022-09-09T13:03:33;100739.19;;;14.19;43.82
34374;BME280;20637;55.770;37.592;2022-09-09T13:06:13;100735.59;;;14.19;43.37
34374;BME280;20637;55.770;37.592;2022-09-09T13:08:42;100739.81;;;14.05;42.98
34374;BME280;20637;55.770;37.592;2022-09-09T13:11:24;100736.88;;;13.99;43.41
34374;BME280;20637;55.770;37.592;2022-09-09T13:13:54;100741.16;;;14.01;43.33
34374;BME280;20637;55.770;37.592;2022-09-09T13:16:33;100745.88;;;13.99;43.46
34374;BME280;20637;55.770;37.592;2022-09-09T13:19:08;100736.34;;;13.95;43.15
34374;BME280;20637;55.770;37.592;2022-09-09T13:21:37;100733.31;;;13.98;43.24
34374;BME280;20637;55.770;37.592;2022-09-09T13:24:29;100738.25;;;14.03;43.50
34374;BME280;20637;55.770;37.592;2022-09-09T13:27:00;100744.88;;;14.00;43.20
34374;BME280;20637;55.770;37.592;2022-09-09T13:29:31;100741.97;;;13.94;43.79
34374;BME280;20637;55.770;37.592;2022-09-09T13:32:16;100737.38;;;13.94;43.83
34374;BME280;20637;55.770;37.592;2022-09-09T13:34:54;100731.75;;;13.88;43.52
34374;BME280;20637;55.770;37.592;2022-09-09T13:37:38;100738.84;;;13.80;43.91
34374;BME280;20637;55.770;37.592;2022-09-09T13:40:17;100738.06;;;13.62;44.10
34374;BME280;20637;55.770;37.592;2022-09-09T13:42:44;100737.03;;;13.55;43.92
34374;BME280;20637;55.770;37.592;2022-09-09T13:45:22;100742.41;;;13.47;43.76
34374;BME280;20637;55.770;37.592;2022-09-09T13:47:49;100740.97;;;13.35;43.76
34374;BME280;20637;55.770;37.592;2022-09-09T13:50:26;100746.13;;;13.28;44.10
34374;BME280;20637;55.770;37.592;2022-09-09T13:52:55;100740.31;;;13.15;44.85
34374;BME280;20637;55.770;37.592;2022-09-09T13:55:23;100744.19;;;13.13;44.58
34374;BME280;20637;55.770;37.592;2022-09-09T13:57:57;100741.38;;;13.05;44.89
34374;BME280;20637;55.770;37.592;2022-09-09T14:00:24;100729.16;;;13.01;45.41
34374;BME280;20637;55.770;37.592;2022-09-09T14:02:50;100737.75;;;12.96;45.26
34374;BME280;20637;55.770;37.592;2022-09-09T14:05:17;100740.91;;;12.92;46.12
34374;BME280;20637;55.770;37.592;2022-09-09T14:07:44;100740.91;;;12.92;45.77
34374;BME280;20637;55.770;37.592;2022-09-09T14:10:11;100741.78;;;12.92;45.61
34374;BME280;20637;55.770;37.592;2022-09-09T14:12:38;100742.94;;;12.89;45.47
34374;BME280;20637;55.770;37.592;2022-09-09T14:15:05;100734.25;;;12.86;45.41
34374;BME280;20637;55.770;37.592;2022-09-09T14:17:31;100737.81;;;12.86;45.50
34374;BME280;20637;55.770;37.592;2022-09-09T14:19:57;100732.41;;;12.86;45.67
34374;BME280;20637;55.770;37.592;2022-09-09T14:22:23;100740.53;;;12.86;45.19
34374;BME280;20637;55.770;37.592;2022-09-09T14:24:50;100734.09;;;12.87;45.33
34374;BME280;20637;55.770;37.592;2022-09-09T14:27:16;100741.91;;;12.90;45.33
34374;BME280;20637;55.770;37.592;2022-09-09T14:29:41;100730.06;;;12.92;45.44
34374;BME280;20637;55.770;37.592;2022-09-09T14:32:09;100732.66;;;12.93;45.57
34374;BME280;20637;55.770;37.592;2022-09-09T14:34:34;100733.31;;;12.95;44.78
34374;BME280;20637;55.770;37.592;2022-09-09T14:37:00;100734.19;;;12.96;45.13
34374;BME280;20637;55.770;37.592;2022-09-09T14:39:26;100736.88;;;12.96;45.12
34374;BME280;20637;55.770;37.592;2022-09-09T14:41:52;100738.53;;;12.88;45.73
34374;BME280;20637;55.770;37.592;2022-09-09T14:44:17;100731.53;;;12.86;45.05
34374;BME280;20637;55.770;37.592;2022-09-09T14:46:43;100734.81;;;12.89;45.91
34374;BME280;20637;55.770;37.592;2022-09-09T14:49:09;100732.16;;;12.98;45.59
34374;BME280;20637;55.770;37.592;2022-09-09T14:51:36;100737.50;;;13.07;45.68
34374;BME280;20637;55.770;37.592;2022-09-09T14:54:01;100733.03;;;13.16;45.62
34374;BME280;20637;55.770;37.592;2022-09-09T14:56:30;100726.28;;;13.20;45.15
34374;BME280;20637;55.770;37.592;2022-09-09T14:58:58;100730.19;;;13.25;45.03
34374;BME280;20637;55.770;37.592;2022-09-09T15:01:24;100727.72;;;13.32;45.37
34374;BME280;20637;55.770;37.592;2022-09-09T15:03:57;100729.41;;;13.33;44.74
34374;BME280;20637;55.770;37.592;2022-09-09T15:06:25;100731.44;;;13.31;45.44
34374;BME280;20637;55.770;37.592;2022-09-09T15:08:52;100737.00;;;13.29;44.60
34374;BME280;20637;55.770;37.592;2022-09-09T15:11:19;100735.09;;;13.22;45.33